Time,TemperatureF,DewpointF,PressureIn,WindDirection,WindDirectionDegrees,WindSpeedMPH,WindSpeedGustMPH,Humidity,HourlyPrecipIn,Conditions,Clouds,dailyrainin,SoftwareType,DateUTC
2013-05-05 00:04:00,56.3,52.9,29.99,North,0,0.0,2.0,88,0.00,,,0.06,meteohub,2013-05-05 05:04:00,
2013-05-05 00:09:00,55.9,52.7,29.99,North,0,0.0,2.0,89,0.00,,,0.00,meteohub,2013-05-05 05:09:00,
2013-05-05 00:14:00,55.8,52.9,29.99,North,5,0.0,2.0,90,0.00,,,0.00,meteohub,2013-05-05 05:14:00,
2013-05-05 00:19:00,55.6,52.7,29.99,NNE,16,0.0,2.0,90,0.00,,,0.00,meteohub,2013-05-05 05:19:00,
2013-05-05 00:24:00,55.8,53.2,30.00,SE,142,1.0,1.0,91,0.00,,,0.00,meteohub,2013-05-05 05:24:00,
2013-05-05 00:29:00,57.2,54.3,30.00,SE,138,0.0,0.0,90,0.00,,,0.00,meteohub,2013-05-05 05:29:00,
2013-05-05 00:34:00,57.7,54.0,29.99,SSE,149,0.0,4.0,87,0.00,,,0.00,meteohub,2013-05-05 05:34:00,
2013-05-05 00:39:00,57.0,53.2,29.99,SE,138,0.0,4.0,87,0.00,,,0.00,meteohub,2013-05-05 05:39:00,
2013-05-05 00:44:00,56.5,52.9,29.99,ESE,105,0.0,2.0,88,0.00,,,0.00,meteohub,2013-05-05 05:44:00,
2013-05-05 00:49:00,56.1,52.9,29.99,ESE,105,0.0,2.0,89,0.00,,,0.00,meteohub,2013-05-05 05:49:00,
2013-05-05 00:54:00,57.0,54.1,30.00,SSE,154,4.0,0.0,90,0.00,,,0.00,meteohub,2013-05-05 05:54:00,
2013-05-05 01:00:00,57.9,54.1,30.00,SE,135,1.0,2.0,87,0.00,,,0.00,meteohub,2013-05-05 06:00:00,
2013-05-05 01:05:00,58.3,54.1,30.00,SE,134,0.0,6.0,86,0.01,,,0.01,meteohub,2013-05-05 06:05:00,
2013-05-05 01:10:00,58.5,54.3,30.00,SE,141,0.0,6.0,86,0.01,,,0.01,meteohub,2013-05-05 06:10:00,
2013-05-05 01:15:00,58.1,53.6,29.99,SSE,159,0.0,6.0,85,0.01,,,0.01,meteohub,2013-05-05 06:15:00,
2013-05-05 01:20:00,57.4,52.9,29.99,SE,146,0.0,1.0,85,0.01,,,0.01,meteohub,2013-05-05 06:20:00,
2013-05-05 01:25:00,56.8,53.1,29.99,ESE,119,0.0,0.0,87,0.02,,,0.02,meteohub,2013-05-05 06:25:00,
2013-05-05 01:30:00,56.8,53.6,29.99,SE,144,0.0,0.0,89,0.02,,,0.02,meteohub,2013-05-05 06:30:00,
2013-05-05 01:35:00,57.6,53.8,29.99,SSE,147,0.0,1.0,87,0.03,,,0.03,meteohub,2013-05-05 06:35:00,
2013-05-05 01:40:00,57.6,53.1,29.99,SE,134,0.0,1.0,85,0.04,,,0.04,meteohub,2013-05-05 06:40:00,
2013-05-05 01:45:00,56.8,52.7,29.99,SE,143,0.0,1.0,86,0.04,,,0.04,meteohub,2013-05-05 06:45:00,
2013-05-05 01:50:00,57.2,53.4,29.99,SSE,150,0.0,0.0,87,0.04,,,0.04,meteohub,2013-05-05 06:50:00,
2013-05-05 01:55:00,57.6,53.4,29.99,SE,128,1.0,4.0,86,0.04,,,0.05,meteohub,2013-05-05 06:55:00,
2013-05-05 02:00:00,57.9,53.1,29.99,SE,140,0.0,4.0,84,0.04,,,0.05,meteohub,2013-05-05 07:00:00,
2013-05-05 02:05:00,57.7,52.7,29.98,ESE,119,0.0,4.0,83,0.05,,,0.06,meteohub,2013-05-05 07:05:00,
2013-05-05 02:10:00,56.7,52.5,29.97,North,355,0.0,4.0,86,0.05,,,0.06,meteohub,2013-05-05 07:10:00,
2013-05-05 02:15:00,55.8,52.3,29.97,North,355,1.0,4.0,88,0.05,,,0.06,meteohub,2013-05-05 07:15:00,
2013-05-05 02:20:00,55.4,52.2,29.98,North,355,0.0,4.0,89,0.04,,,0.06,meteohub,2013-05-05 07:20:00,
2013-05-05 02:25:00,55.6,53.1,29.98,North,355,0.0,2.0,91,0.04,,,0.06,meteohub,2013-05-05 07:25:00,
2013-05-05 02:30:00,56.8,54.3,29.98,SE,143,0.0,2.0,91,0.03,,,0.06,meteohub,2013-05-05 07:30:00,
2013-05-05 02:35:00,57.4,53.8,29.97,SE,146,0.0,3.0,88,0.03,,,0.06,meteohub,2013-05-05 07:35:00,
2013-05-05 02:41:00,57.2,53.1,29.98,ENE,69,0.0,3.0,86,0.02,,,0.06,meteohub,2013-05-05 07:41:00,
2013-05-05 02:46:00,56.8,53.1,29.97,NNE,16,4.0,4.0,87,0.02,,,0.06,meteohub,2013-05-05 07:46:00,
2013-05-05 02:51:00,55.9,52.5,29.97,NNE,19,4.0,5.0,88,0.02,,,0.06,meteohub,2013-05-05 07:51:00,
2013-05-05 02:56:00,55.2,52.3,29.96,North,350,1.0,5.0,90,0.01,,,0.06,meteohub,2013-05-05 07:56:00,
2013-05-05 03:01:00,54.9,52.0,29.96,North,355,0.0,5.0,90,0.00,,,0.06,meteohub,2013-05-05 08:01:00,
2013-05-05 03:06:00,54.7,52.2,29.96,North,355,0.0,5.0,91,0.00,,,0.06,meteohub,2013-05-05 08:06:00,
2013-05-05 03:11:00,54.7,52.2,29.96,North,355,0.0,5.0,91,0.00,,,0.06,meteohub,2013-05-05 08:11:00,
2013-05-05 03:16:00,54.5,52.0,29.96,North,355,0.0,2.0,91,0.00,,,0.06,meteohub,2013-05-05 08:16:00,
2013-05-05 03:21:00,54.7,52.2,29.96,North,0,0.0,1.0,91,0.00,,,0.06,meteohub,2013-05-05 08:21:00,
2013-05-05 03:26:00,54.5,52.2,29.96,North,355,0.0,0.0,92,0.00,,,0.06,meteohub,2013-05-05 08:26:00,
2013-05-05 03:31:00,54.5,52.2,29.96,NNW,348,0.0,0.0,92,0.00,,,0.06,meteohub,2013-05-05 08:31:00,
2013-05-05 03:36:00,54.5,52.2,29.95,NNW,345,0.0,1.0,92,0.00,,,0.06,meteohub,2013-05-05 08:36:00,
2013-05-05 03:41:00,54.3,52.0,29.95,NNW,344,0.0,1.0,92,0.00,,,0.06,meteohub,2013-05-05 08:41:00,
2013-05-05 03:46:00,54.3,52.0,29.95,NNW,342,0.0,0.0,92,0.00,,,0.06,meteohub,2013-05-05 08:46:00,
2013-05-05 03:51:00,54.3,52.0,29.95,NNW,337,0.0,2.0,92,0.00,,,0.06,meteohub,2013-05-05 08:51:00,
2013-05-05 03:56:00,54.3,52.0,29.94,NNW,330,2.0,2.0,92,0.00,,,0.06,meteohub,2013-05-05 08:56:00,
2013-05-05 04:01:00,54.3,52.0,29.94,NW,320,1.0,2.0,92,0.00,,,0.06,meteohub,2013-05-05 09:01:00,
2013-05-05 04:06:00,54.1,51.8,29.94,NW,319,0.0,2.0,92,0.00,,,0.06,meteohub,2013-05-05 09:06:00,
2013-05-05 04:11:00,54.1,51.8,29.94,NW,320,1.0,2.0,92,0.00,,,0.06,meteohub,2013-05-05 09:11:00,
2013-05-05 04:16:00,54.1,51.8,29.94,NW,320,0.0,2.0,92,0.00,,,0.06,meteohub,2013-05-05 09:16:00,
2013-05-05 04:22:00,54.0,52.0,29.94,NW,320,0.0,4.0,93,0.00,,,0.06,meteohub,2013-05-05 09:22:00,
2013-05-05 04:27:00,54.0,52.0,29.94,NW,320,0.0,4.0,93,0.00,,,0.06,meteohub,2013-05-05 09:27:00,
2013-05-05 04:32:00,54.0,52.0,29.94,North,355,0.0,4.0,93,0.00,,,0.06,meteohub,2013-05-05 09:32:00,
2013-05-05 04:37:00,54.0,52.0,29.94,North,351,1.0,5.0,93,0.00,,,0.06,meteohub,2013-05-05 09:37:00,
2013-05-05 04:42:00,54.0,52.0,29.94,North,350,2.0,5.0,93,0.00,,,0.06,meteohub,2013-05-05 09:42:00,
2013-05-05 04:47:00,54.0,52.0,29.94,NNW,346,4.0,5.0,93,0.00,,,0.06,meteohub,2013-05-05 09:47:00,
2013-05-05 04:52:00,54.0,52.0,29.94,NNW,339,0.0,4.0,93,0.00,,,0.06,meteohub,2013-05-05 09:52:00,
2013-05-05 04:57:00,54.0,52.0,29.94,NNW,339,0.0,4.0,93,0.00,,,0.06,meteohub,2013-05-05 09:57:00,
2013-05-05 05:02:00,54.0,52.0,29.94,NNW,339,0.0,4.0,93,0.00,,,0.06,meteohub,2013-05-05 10:02:00,
2013-05-05 05:07:00,54.0,52.0,29.94,NNW,339,1.0,1.0,93,0.00,,,0.06,meteohub,2013-05-05 10:07:00,
2013-05-05 05:12:00,54.0,52.0,29.94,NNW,340,2.0,3.0,93,0.00,,,0.06,meteohub,2013-05-05 10:12:00,
2013-05-05 05:17:00,54.0,52.0,29.94,NNW,344,2.0,4.0,93,0.00,,,0.06,meteohub,2013-05-05 10:17:00,
2013-05-05 05:22:00,54.0,52.0,29.94,NNW,348,2.0,4.0,93,0.00,,,0.06,meteohub,2013-05-05 10:22:00,
2013-05-05 05:27:00,54.0,52.0,29.94,NNW,348,0.0,4.0,93,0.00,,,0.06,meteohub,2013-05-05 10:27:00,
2013-05-05 05:32:00,54.0,52.0,29.94,NNW,345,2.0,4.0,93,0.00,,,0.06,meteohub,2013-05-05 10:32:00,
2013-05-05 05:37:00,54.0,52.0,29.94,NNW,333,2.0,5.0,93,0.00,,,0.06,meteohub,2013-05-05 10:37:00,
2013-05-05 05:42:00,54.0,52.0,29.94,NNW,335,0.0,5.0,93,0.00,,,0.06,meteohub,2013-05-05 10:42:00,
2013-05-05 05:47:00,54.0,52.0,29.94,NNW,335,1.0,5.0,93,0.00,,,0.06,meteohub,2013-05-05 10:47:00,
2013-05-05 05:52:00,54.0,52.0,29.94,NNW,342,2.0,4.0,93,0.00,,,0.06,meteohub,2013-05-05 10:52:00,
2013-05-05 05:57:00,54.0,52.0,29.94,NNW,345,1.0,5.0,93,0.00,,,0.06,meteohub,2013-05-05 10:57:00,
2013-05-05 06:02:00,54.0,52.0,29.94,NNW,334,0.0,5.0,93,0.00,,,0.06,meteohub,2013-05-05 11:02:00,
2013-05-05 06:07:00,54.0,52.0,29.94,NNW,329,0.0,6.0,93,0.00,,,0.06,meteohub,2013-05-05 11:07:00,
2013-05-05 06:12:00,54.0,52.0,29.94,NNW,329,0.0,6.0,93,0.00,,,0.06,meteohub,2013-05-05 11:12:00,
2013-05-05 06:17:00,54.0,52.0,29.94,NNW,329,0.0,4.0,93,0.00,,,0.06,meteohub,2013-05-05 11:17:00,
2013-05-05 06:22:00,54.0,52.0,29.94,NNW,329,0.0,2.0,93,0.00,,,0.06,meteohub,2013-05-05 11:22:00,
2013-05-05 06:27:00,54.1,52.2,29.93,NNW,328,1.0,3.0,93,0.00,,,0.06,meteohub,2013-05-05 11:27:00,
2013-05-05 06:32:00,54.1,52.2,29.93,NNW,329,0.0,5.0,93,0.00,,,0.06,meteohub,2013-05-05 11:32:00,
2013-05-05 06:37:00,54.1,52.2,29.94,North,0,0.0,5.0,93,0.00,,,0.06,meteohub,2013-05-05 11:37:00,
2013-05-05 06:42:00,54.3,52.3,29.94,North,350,0.0,5.0,93,0.00,,,0.06,meteohub,2013-05-05 11:42:00,
2013-05-05 06:47:00,54.3,52.3,29.94,North,355,0.0,7.0,93,0.00,,,0.06,meteohub,2013-05-05 11:47:00,
2013-05-05 06:52:00,54.3,52.3,29.94,NNE,26,4.0,7.0,93,0.00,,,0.06,meteohub,2013-05-05 11:52:00,
2013-05-05 06:57:00,54.5,52.5,29.93,NNW,345,0.0,7.0,93,0.00,,,0.06,meteohub,2013-05-05 11:57:00,
2013-05-05 07:02:00,54.5,52.5,29.93,NNE,20,1.0,7.0,93,0.00,,,0.06,meteohub,2013-05-05 12:02:00,
2013-05-05 07:07:00,54.7,52.3,29.93,North,5,1.0,7.0,92,0.00,,,0.06,meteohub,2013-05-05 12:07:00,
2013-05-05 07:12:00,54.9,52.5,29.93,NNE,17,4.0,6.0,92,0.00,,,0.06,meteohub,2013-05-05 12:12:00,
2013-05-05 07:17:00,54.9,52.5,29.93,North,351,5.0,7.0,92,0.00,,,0.06,meteohub,2013-05-05 12:17:00,
2013-05-05 07:22:00,54.9,52.5,29.93,NNE,19,7.0,8.0,92,0.00,,,0.06,meteohub,2013-05-05 12:22:00,
2013-05-05 07:27:00,54.9,52.5,29.93,North,11,6.0,8.0,92,0.00,,,0.06,meteohub,2013-05-05 12:27:00,
2013-05-05 07:32:00,55.0,52.7,29.93,North,5,5.0,8.0,92,0.00,,,0.06,meteohub,2013-05-05 12:32:00,
2013-05-05 07:37:00,55.0,52.7,29.94,NNE,13,1.0,9.0,92,0.00,,,0.06,meteohub,2013-05-05 12:37:00,
2013-05-05 07:42:00,55.2,52.9,29.94,NNW,337,3.0,9.0,92,0.00,,,0.06,meteohub,2013-05-05 12:42:00,
2013-05-05 07:47:00,55.2,52.9,29.94,NNE,28,1.0,9.0,92,0.00,,,0.06,meteohub,2013-05-05 12:47:00,
2013-05-05 07:52:00,55.6,53.6,29.94,NNE,12,5.0,8.0,93,0.00,,,0.06,meteohub,2013-05-05 12:52:00,
2013-05-05 07:57:00,55.8,53.8,29.94,NNE,31,5.0,8.0,93,0.00,,,0.06,meteohub,2013-05-05 12:57:00,
2013-05-05 08:02:00,55.9,53.6,29.94,North,0,5.0,8.0,92,0.00,,,0.06,meteohub,2013-05-05 13:02:00,
2013-05-05 08:07:00,56.1,53.8,29.94,NNE,27,4.0,8.0,92,0.00,,,0.06,meteohub,2013-05-05 13:07:00,
2013-05-05 08:12:00,56.5,54.0,29.94,North,355,6.0,7.0,91,0.00,,,0.06,meteohub,2013-05-05 13:12:00,
2013-05-05 08:17:00,56.7,54.1,29.94,North,5,6.0,8.0,91,0.00,,,0.06,meteohub,2013-05-05 13:17:00,
2013-05-05 08:22:00,56.8,54.3,29.95,North,9,7.0,8.0,91,0.00,,,0.06,meteohub,2013-05-05 13:22:00,
2013-05-05 08:27:00,56.8,54.0,29.95,NE,34,4.0,8.0,90,0.00,,,0.06,meteohub,2013-05-05 13:27:00,
2013-05-05 08:32:00,57.0,54.1,29.95,NNE,30,5.0,8.0,90,0.00,,,0.06,meteohub,2013-05-05 13:32:00,
2013-05-05 08:37:00,57.4,54.5,29.95,NE,55,5.0,8.0,90,0.00,,,0.06,meteohub,2013-05-05 13:37:00,
2013-05-05 08:42:00,57.4,54.5,29.95,NE,55,5.0,7.0,90,0.00,,,0.06,meteohub,2013-05-05 13:42:00,
2013-05-05 08:47:00,57.4,54.1,29.95,NE,42,1.0,8.0,89,0.00,,,0.06,meteohub,2013-05-05 13:47:00,
2013-05-05 08:52:00,57.7,54.5,29.95,East,81,1.0,8.0,89,0.00,,,0.06,meteohub,2013-05-05 13:52:00,
2013-05-05 08:57:00,58.3,55.0,29.95,NNE,18,5.0,7.0,89,0.00,,,0.06,meteohub,2013-05-05 13:57:00,
2013-05-05 09:02:00,58.8,55.6,29.94,NE,50,5.0,9.0,89,0.00,,,0.06,meteohub,2013-05-05 14:02:00,
2013-05-05 09:07:00,59.4,55.4,29.94,NNE,13,3.0,9.0,87,0.00,,,0.06,meteohub,2013-05-05 14:07:00,
2013-05-05 09:12:00,59.7,55.6,29.95,ENE,74,5.0,9.0,86,0.00,,,0.06,meteohub,2013-05-05 14:12:00,
2013-05-05 09:17:00,60.1,55.6,29.95,ENE,61,1.0,9.0,85,0.00,,,0.06,meteohub,2013-05-05 14:17:00,
2013-05-05 09:22:00,60.3,55.4,29.95,SSW,194,6.0,8.0,84,0.00,,,0.06,meteohub,2013-05-05 14:22:00,
2013-05-05 09:27:00,60.6,56.1,29.95,ESE,117,0.0,8.0,85,0.00,,,0.06,meteohub,2013-05-05 14:27:00,
2013-05-05 09:32:00,61.2,55.2,29.95,ENE,59,5.0,8.0,81,0.00,,,0.06,meteohub,2013-05-05 14:32:00,
2013-05-05 09:37:00,61.0,55.4,29.95,ESE,119,0.0,8.0,82,0.00,,,0.06,meteohub,2013-05-05 14:37:00,
2013-05-05 09:42:00,61.3,55.4,29.95,NE,53,5.0,8.0,81,0.00,,,0.06,meteohub,2013-05-05 14:42:00,
2013-05-05 09:47:00,61.2,55.2,29.95,East,79,4.0,8.0,81,0.00,,,0.06,meteohub,2013-05-05 14:47:00,
2013-05-05 09:52:00,60.8,55.2,29.95,East,94,1.0,8.0,82,0.00,,,0.06,meteohub,2013-05-05 14:52:00,
2013-05-05 09:57:00,61.2,55.2,29.95,ESE,114,0.0,7.0,81,0.00,,,0.06,meteohub,2013-05-05 14:57:00,
2013-05-05 10:02:00,61.3,55.0,29.95,South,184,0.0,6.0,80,0.00,,,0.06,meteohub,2013-05-05 15:02:00,
2013-05-05 10:07:00,61.7,55.4,29.95,SW,222,0.0,6.0,80,0.00,,,0.06,meteohub,2013-05-05 15:07:00,
2013-05-05 10:12:00,61.9,55.2,29.94,ENE,67,1.0,6.0,79,0.00,,,0.06,meteohub,2013-05-05 15:12:00,
2013-05-05 10:17:00,61.5,55.2,29.94,NE,37,1.0,6.0,80,0.00,,,0.06,meteohub,2013-05-05 15:17:00,
2013-05-05 10:22:00,61.9,55.2,29.94,ENE,65,2.0,6.0,79,0.00,,,0.06,meteohub,2013-05-05 15:22:00,
2013-05-05 10:27:00,61.5,54.9,29.94,NNE,31,1.0,6.0,79,0.00,,,0.06,meteohub,2013-05-05 15:27:00,
2013-05-05 10:32:00,61.5,54.9,29.93,ENE,67,1.0,6.0,79,0.00,,,0.06,meteohub,2013-05-05 15:32:00,
2013-05-05 10:37:00,61.5,55.2,29.93,NE,35,2.0,6.0,80,0.00,,,0.06,meteohub,2013-05-05 15:37:00,
2013-05-05 10:42:00,61.7,55.0,29.93,NNE,25,0.0,5.0,79,0.00,,,0.06,meteohub,2013-05-05 15:42:00,
2013-05-05 10:47:00,61.9,55.2,29.94,NNE,12,0.0,4.0,79,0.00,,,0.06,meteohub,2013-05-05 15:47:00,
2013-05-05 10:52:00,62.1,55.0,29.94,NE,55,2.0,5.0,78,0.00,,,0.06,meteohub,2013-05-05 15:52:00,
2013-05-05 10:57:00,62.4,55.4,29.94,ENE,65,5.0,5.0,78,0.00,,,0.06,meteohub,2013-05-05 15:57:00,
2013-05-05 11:02:00,62.4,55.4,29.93,NNE,31,5.0,5.0,78,0.00,,,0.06,meteohub,2013-05-05 16:02:00,
2013-05-05 11:07:00,62.4,55.0,29.93,NE,56,2.0,5.0,77,0.00,,,0.06,meteohub,2013-05-05 16:07:00,
2013-05-05 11:12:00,62.6,55.6,29.93,NNE,15,5.0,6.0,78,0.00,,,0.06,meteohub,2013-05-05 16:12:00,
2013-05-05 11:17:00,63.1,55.8,29.93,NNE,24,6.0,8.0,77,0.00,,,0.06,meteohub,2013-05-05 16:17:00,
2013-05-05 11:22:00,63.3,55.6,29.93,NNW,337,0.0,9.0,76,0.00,,,0.06,meteohub,2013-05-05 16:22:00,
2013-05-05 11:27:00,63.7,55.6,29.93,NE,46,4.0,9.0,75,0.00,,,0.06,meteohub,2013-05-05 16:27:00,
2013-05-05 11:32:00,63.7,55.6,29.93,NNE,19,3.0,9.0,75,0.00,,,0.06,meteohub,2013-05-05 16:32:00,
2013-05-05 11:37:00,64.0,55.2,29.93,NE,51,2.0,9.0,73,0.00,,,0.06,meteohub,2013-05-05 16:37:00,
2013-05-05 11:42:00,64.6,55.4,29.93,ENE,76,4.0,8.0,72,0.00,,,0.06,meteohub,2013-05-05 16:42:00,
2013-05-05 11:47:00,64.9,55.8,29.93,NE,55,5.0,9.0,72,0.00,,,0.06,meteohub,2013-05-05 16:47:00,
2013-05-05 11:52:00,64.9,55.8,29.93,NE,36,9.0,10.0,72,0.00,,,0.06,meteohub,2013-05-05 16:52:00,
2013-05-05 11:57:00,64.8,55.6,29.93,NNE,21,3.0,12.0,72,0.00,,,0.06,meteohub,2013-05-05 16:57:00,
2013-05-05 12:02:00,64.8,55.6,29.93,NE,54,8.0,12.0,72,0.00,,,0.06,meteohub,2013-05-05 17:02:00,
2013-05-05 12:07:00,64.8,55.2,29.93,NNE,17,6.0,12.0,71,0.00,,,0.06,meteohub,2013-05-05 17:07:00,
2013-05-05 12:12:00,65.5,55.8,29.93,NE,49,1.0,13.0,71,0.00,,,0.06,meteohub,2013-05-05 17:12:00,
2013-05-05 12:17:00,65.8,55.0,29.93,East,86,2.0,13.0,68,0.00,,,0.06,meteohub,2013-05-05 17:17:00,
2013-05-05 12:22:00,66.4,55.6,29.93,ESE,103,7.0,10.0,68,0.00,,,0.06,meteohub,2013-05-05 17:22:00,
2013-05-05 12:27:00,66.6,54.5,29.93,SE,133,5.0,10.0,65,0.00,,,0.06,meteohub,2013-05-05 17:27:00,
2013-05-05 12:32:00,66.0,54.3,29.93,East,80,5.0,10.0,66,0.00,,,0.06,meteohub,2013-05-05 17:32:00,
2013-05-05 12:37:00,65.7,54.3,29.93,ENE,76,2.0,13.0,67,0.00,,,0.06,meteohub,2013-05-05 17:37:00,
2013-05-05 12:42:00,65.5,54.3,29.93,ENE,68,7.0,13.0,67,0.00,,,0.06,meteohub,2013-05-05 17:42:00,
2013-05-05 12:47:00,65.7,54.3,29.92,SE,134,0.0,12.0,67,0.00,,,0.06,meteohub,2013-05-05 17:47:00,
2013-05-05 12:52:00,66.0,54.7,29.92,ENE,74,4.0,12.0,67,0.00,,,0.06,meteohub,2013-05-05 17:52:00,
2013-05-05 12:57:00,66.6,54.5,29.92,ENE,72,5.0,10.0,65,0.00,,,0.06,meteohub,2013-05-05 17:57:00,
2013-05-05 13:02:00,66.6,54.5,29.92,SE,132,5.0,10.0,65,0.00,,,0.06,meteohub,2013-05-05 18:02:00,
2013-05-05 13:07:00,66.9,54.9,29.92,SSW,192,0.0,10.0,65,0.00,,,0.06,meteohub,2013-05-05 18:07:00,
2013-05-05 13:12:00,66.9,54.3,29.92,East,89,1.0,10.0,64,0.00,,,0.06,meteohub,2013-05-05 18:12:00,
2013-05-05 13:17:00,67.1,55.4,29.92,SE,128,1.0,10.0,66,0.00,,,0.06,meteohub,2013-05-05 18:17:00,
2013-05-05 13:22:00,66.7,53.2,29.92,SE,128,7.0,11.0,62,0.00,,,0.06,meteohub,2013-05-05 18:22:00,
2013-05-05 13:27:00,66.4,53.8,29.92,East,90,3.0,14.0,64,0.00,,,0.06,meteohub,2013-05-05 18:27:00,
2013-05-05 13:32:00,66.9,54.3,29.92,ESE,119,8.0,14.0,64,0.00,,,0.06,meteohub,2013-05-05 18:32:00,
2013-05-05 13:37:00,66.9,53.4,29.92,East,88,2.0,14.0,62,0.00,,,0.06,meteohub,2013-05-05 18:37:00,
2013-05-05 13:42:00,66.9,53.4,29.92,ENE,74,2.0,13.0,62,0.00,,,0.06,meteohub,2013-05-05 18:42:00,
2013-05-05 13:47:00,67.3,53.8,29.92,East,92,10.0,13.0,62,0.00,,,0.06,meteohub,2013-05-05 18:47:00,
2013-05-05 13:52:00,67.3,53.4,29.91,SSW,193,2.0,11.0,61,0.00,,,0.06,meteohub,2013-05-05 18:52:00,
2013-05-05 13:57:00,66.9,53.1,29.92,South,190,5.0,10.0,61,0.00,,,0.06,meteohub,2013-05-05 18:57:00,
2013-05-05 14:02:00,66.6,52.7,29.92,ENE,66,7.0,13.0,61,0.00,,,0.06,meteohub,2013-05-05 19:02:00,
2013-05-05 14:07:00,66.4,53.4,29.92,ESE,105,7.0,14.0,63,0.00,,,0.06,meteohub,2013-05-05 19:07:00,
2013-05-05 14:12:00,66.6,53.1,29.91,ESE,102,2.0,14.0,62,0.00,,,0.06,meteohub,2013-05-05 19:12:00,
2013-05-05 14:17:00,66.4,52.9,29.91,ENE,71,6.0,11.0,62,0.00,,,0.06,meteohub,2013-05-05 19:17:00,
2013-05-05 14:22:00,66.0,52.2,29.91,ENE,74,2.0,12.0,61,0.00,,,0.06,meteohub,2013-05-05 19:22:00,
2013-05-05 14:27:00,65.8,52.0,29.91,East,100,2.0,13.0,61,0.00,,,0.06,meteohub,2013-05-05 19:27:00,
2013-05-05 14:32:00,66.0,52.7,29.91,East,86,0.0,13.0,62,0.00,,,0.06,meteohub,2013-05-05 19:32:00,
2013-05-05 14:37:00,65.5,51.6,29.91,East,82,6.0,13.0,61,0.00,,,0.06,meteohub,2013-05-05 19:37:00,
2013-05-05 14:42:00,64.9,52.9,29.91,ENE,77,5.0,15.0,65,0.00,,,0.06,meteohub,2013-05-05 19:42:00,
2013-05-05 14:47:00,64.0,52.5,29.92,East,82,10.0,15.0,66,0.00,,,0.06,meteohub,2013-05-05 19:47:00,
2013-05-05 14:52:00,63.7,52.9,29.92,SE,136,6.0,18.0,68,0.00,,,0.06,meteohub,2013-05-05 19:52:00,
2013-05-05 14:57:00,63.7,52.9,29.92,SW,219,0.0,18.0,68,0.00,,,0.06,meteohub,2013-05-05 19:57:00,
2013-05-05 15:02:00,64.0,52.5,29.92,East,89,10.0,14.0,66,0.00,,,0.06,meteohub,2013-05-05 20:02:00,
2013-05-05 15:07:00,63.9,52.3,29.92,East,93,6.0,15.0,66,0.00,,,0.06,meteohub,2013-05-05 20:07:00,
2013-05-05 15:12:00,64.0,52.5,29.92,SE,135,0.0,18.0,66,0.00,,,0.06,meteohub,2013-05-05 20:12:00,
2013-05-05 15:17:00,63.7,52.2,29.92,ENE,69,10.0,18.0,66,0.00,,,0.06,meteohub,2013-05-05 20:17:00,
2013-05-05 15:22:00,63.5,52.3,29.92,East,89,0.0,18.0,67,0.00,,,0.06,meteohub,2013-05-05 20:22:00,
2013-05-05 15:27:00,63.7,52.5,29.92,ENE,63,10.0,16.0,67,0.00,,,0.06,meteohub,2013-05-05 20:27:00,
2013-05-05 15:32:00,64.0,53.2,29.92,East,86,8.0,14.0,68,0.00,,,0.06,meteohub,2013-05-05 20:32:00,
2013-05-05 15:37:00,64.4,53.2,29.92,East,94,1.0,13.0,67,0.00,,,0.06,meteohub,2013-05-05 20:37:00,
2013-05-05 15:42:00,64.2,52.2,29.92,NE,42,1.0,10.0,65,0.00,,,0.06,meteohub,2013-05-05 20:42:00,
2013-05-05 15:47:00,64.0,52.0,29.92,East,80,5.0,11.0,65,0.00,,,0.06,meteohub,2013-05-05 20:47:00,
2013-05-05 15:52:00,64.2,51.8,29.91,WNW,297,4.0,13.0,64,0.00,,,0.06,meteohub,2013-05-05 20:52:00,
2013-05-05 15:57:00,64.0,52.0,29.91,SSE,154,5.0,13.0,65,0.00,,,0.06,meteohub,2013-05-05 20:57:00,
2013-05-05 16:02:00,64.0,52.0,29.91,SSE,154,2.0,13.0,65,0.00,,,0.06,meteohub,2013-05-05 21:02:00,
2013-05-05 16:07:00,64.2,52.2,29.92,ESE,123,6.0,12.0,65,0.00,,,0.06,meteohub,2013-05-05 21:07:00,
2013-05-05 16:12:00,64.4,52.3,29.92,ESE,110,7.0,12.0,65,0.00,,,0.06,meteohub,2013-05-05 21:12:00,
2013-05-05 16:17:00,64.0,51.6,29.91,East,90,6.0,10.0,64,0.00,,,0.06,meteohub,2013-05-05 21:17:00,
2013-05-05 16:22:00,64.0,52.5,29.92,ESE,109,11.0,11.0,66,0.00,,,0.06,meteohub,2013-05-05 21:22:00,
2013-05-05 16:27:00,64.0,51.6,29.92,East,95,4.0,12.0,64,0.00,,,0.06,meteohub,2013-05-05 21:27:00,
2013-05-05 16:32:00,63.9,52.3,29.91,NE,51,2.0,12.0,66,0.00,,,0.06,meteohub,2013-05-05 21:32:00,
2013-05-05 16:37:00,63.7,52.5,29.91,ESE,111,9.0,12.0,67,0.00,,,0.06,meteohub,2013-05-05 21:37:00,
2013-05-05 16:42:00,63.1,51.6,29.91,East,93,7.0,13.0,66,0.00,,,0.06,meteohub,2013-05-05 21:42:00,
2013-05-05 16:47:00,63.3,52.5,29.91,ESE,109,4.0,13.0,68,0.00,,,0.06,meteohub,2013-05-05 21:47:00,
2013-05-05 16:52:00,63.3,51.4,29.91,ENE,78,4.0,13.0,65,0.00,,,0.06,meteohub,2013-05-05 21:52:00,
2013-05-05 16:57:00,62.8,52.0,29.91,East,96,8.0,10.0,68,0.00,,,0.06,meteohub,2013-05-05 21:57:00,
2013-05-05 17:02:00,63.3,51.8,29.91,East,86,5.0,14.0,66,0.00,,,0.06,meteohub,2013-05-05 22:02:00,
2013-05-05 17:07:00,63.7,52.2,29.91,South,175,7.0,14.0,66,0.00,,,0.06,meteohub,2013-05-05 22:07:00,
2013-05-05 17:12:00,63.5,52.0,29.91,SE,138,1.0,9.0,66,0.00,,,0.06,meteohub,2013-05-05 22:12:00,
2013-05-05 17:17:00,63.3,51.8,29.91,East,81,0.0,10.0,66,0.00,,,0.06,meteohub,2013-05-05 22:17:00,
2013-05-05 17:22:00,63.0,51.8,29.91,ESE,119,5.0,10.0,67,0.00,,,0.06,meteohub,2013-05-05 22:22:00,
2013-05-05 17:27:00,63.0,51.8,29.91,East,98,5.0,11.0,67,0.00,,,0.06,meteohub,2013-05-05 22:27:00,
2013-05-05 17:32:00,62.4,51.3,29.91,East,96,7.0,11.0,67,0.00,,,0.06,meteohub,2013-05-05 22:32:00,
2013-05-05 17:37:00,62.4,51.8,29.91,NNE,22,1.0,12.0,68,0.00,,,0.06,meteohub,2013-05-05 22:37:00,
2013-05-05 17:42:00,62.4,52.2,29.92,SSE,148,2.0,12.0,69,0.00,,,0.06,meteohub,2013-05-05 22:42:00,
2013-05-05 17:47:00,63.1,51.6,29.92,ESE,119,2.0,12.0,66,0.00,,,0.06,meteohub,2013-05-05 22:47:00,
2013-05-05 17:52:00,62.8,51.3,29.92,SSE,161,5.0,12.0,66,0.00,,,0.06,meteohub,2013-05-05 22:52:00,
2013-05-05 17:57:00,62.6,51.1,29.92,ESE,103,2.0,12.0,66,0.00,,,0.06,meteohub,2013-05-05 22:57:00,
2013-05-05 18:02:00,62.4,50.9,29.92,SW,228,1.0,12.0,66,0.00,,,0.06,meteohub,2013-05-05 23:02:00,
2013-05-05 18:07:00,62.8,51.6,29.92,ENE,63,5.0,11.0,67,0.00,,,0.06,meteohub,2013-05-05 23:07:00,
2013-05-05 18:12:00,62.6,51.4,29.92,ESE,109,4.0,11.0,67,0.00,,,0.06,meteohub,2013-05-05 23:12:00,
2013-05-05 18:17:00,62.8,51.6,29.92,ENE,57,3.0,9.0,67,0.00,,,0.06,meteohub,2013-05-05 23:17:00,
2013-05-05 18:22:00,62.2,51.6,29.92,ENE,61,5.0,8.0,68,0.00,,,0.06,meteohub,2013-05-05 23:22:00,
2013-05-05 18:27:00,62.1,51.4,29.92,ENE,77,1.0,10.0,68,0.00,,,0.06,meteohub,2013-05-05 23:27:00,
2013-05-05 18:32:00,62.4,51.3,29.92,ESE,109,0.0,10.0,67,0.00,,,0.06,meteohub,2013-05-05 23:32:00,
2013-05-05 18:37:00,62.1,51.4,29.92,SSE,149,4.0,10.0,68,0.00,,,0.06,meteohub,2013-05-05 23:37:00,
2013-05-05 18:42:00,61.9,51.3,29.92,NE,43,5.0,14.0,68,0.00,,,0.06,meteohub,2013-05-05 23:42:00,
2013-05-05 18:47:00,61.5,52.0,29.92,ESE,102,1.0,14.0,71,0.00,,,0.06,meteohub,2013-05-05 23:47:00,
2013-05-05 18:52:00,61.5,51.6,29.93,South,191,4.0,12.0,70,0.00,,,0.06,meteohub,2013-05-05 23:52:00,
2013-05-05 18:57:00,61.5,52.0,29.93,East,86,2.0,11.0,71,0.00,,,0.06,meteohub,2013-05-05 23:57:00,
2013-05-05 19:02:00,61.5,51.6,29.93,ENE,62,0.0,9.0,70,0.00,,,0.06,meteohub,2013-05-06 00:02:00,
2013-05-05 19:07:00,61.3,51.8,29.93,ESE,121,6.0,10.0,71,0.00,,,0.06,meteohub,2013-05-06 00:07:00,
2013-05-05 19:12:00,61.5,52.3,29.94,SE,134,4.0,10.0,72,0.00,,,0.06,meteohub,2013-05-06 00:12:00,
2013-05-05 19:17:00,61.3,52.2,29.94,SE,126,4.0,8.0,72,0.00,,,0.06,meteohub,2013-05-06 00:17:00,
2013-05-05 19:22:00,61.0,52.3,29.94,East,89,2.0,8.0,73,0.00,,,0.06,meteohub,2013-05-06 00:22:00,
2013-05-05 19:27:00,60.6,52.3,29.94,East,101,2.0,8.0,74,0.00,,,0.06,meteohub,2013-05-06 00:27:00,
2013-05-05 19:32:00,61.0,52.3,29.94,ENE,63,1.0,8.0,73,0.00,,,0.06,meteohub,2013-05-06 00:32:00,
2013-05-05 19:37:00,60.8,52.5,29.94,NE,38,1.0,8.0,74,0.00,,,0.06,meteohub,2013-05-06 00:37:00,
2013-05-05 19:42:00,61.0,52.7,29.94,East,84,1.0,8.0,74,0.00,,,0.06,meteohub,2013-05-06 00:42:00,
2013-05-05 19:47:00,61.0,52.3,29.94,ENE,74,7.0,8.0,73,0.00,,,0.06,meteohub,2013-05-06 00:47:00,
2013-05-05 19:52:00,60.6,52.0,29.94,East,87,1.0,9.0,73,0.00,,,0.06,meteohub,2013-05-06 00:52:00,
2013-05-05 19:57:00,61.0,52.3,29.95,East,80,4.0,9.0,73,0.00,,,0.06,meteohub,2013-05-06 00:57:00,
2013-05-05 20:02:00,60.6,52.0,29.95,ENE,76,6.0,9.0,73,0.00,,,0.06,meteohub,2013-05-06 01:02:00,
2013-05-05 20:07:00,60.6,52.0,29.95,ESE,107,2.0,8.0,73,0.00,,,0.06,meteohub,2013-05-06 01:07:00,
2013-05-05 20:12:00,60.4,51.8,29.95,East,89,0.0,8.0,73,0.00,,,0.06,meteohub,2013-05-06 01:12:00,
2013-05-05 20:17:00,60.6,51.6,29.95,East,94,2.0,9.0,72,0.00,,,0.06,meteohub,2013-05-06 01:17:00,
2013-05-05 20:22:00,60.6,51.1,29.95,East,90,1.0,12.0,71,0.00,,,0.06,meteohub,2013-05-06 01:22:00,
2013-05-05 20:27:00,60.8,50.9,29.95,East,98,1.0,12.0,70,0.00,,,0.06,meteohub,2013-05-06 01:27:00,
2013-05-05 20:32:00,60.8,51.3,29.95,SE,143,0.0,12.0,71,0.00,,,0.06,meteohub,2013-05-06 01:32:00,
2013-05-05 20:37:00,60.8,51.3,29.96,SSE,158,1.0,8.0,71,0.00,,,0.06,meteohub,2013-05-06 01:37:00,
2013-05-05 20:42:00,61.2,51.6,29.96,WSW,248,1.0,8.0,71,0.00,,,0.06,meteohub,2013-05-06 01:42:00,
2013-05-05 20:47:00,61.3,51.8,29.96,East,92,0.0,6.0,71,0.00,,,0.06,meteohub,2013-05-06 01:47:00,
2013-05-05 20:52:00,61.5,52.0,29.96,ESE,120,1.0,7.0,71,0.00,,,0.06,meteohub,2013-05-06 01:52:00,
2013-05-05 20:57:00,61.2,51.6,29.96,NE,53,0.0,7.0,71,0.00,,,0.06,meteohub,2013-05-06 01:57:00,
2013-05-05 21:02:00,61.0,51.4,29.96,ENE,76,0.0,7.0,71,0.00,,,0.06,meteohub,2013-05-06 02:02:00,
2013-05-05 21:07:00,61.0,52.0,29.96,ESE,110,0.0,5.0,72,0.00,,,0.06,meteohub,2013-05-06 02:07:00,
2013-05-05 21:12:00,61.0,52.0,29.96,SE,134,0.0,5.0,72,0.00,,,0.06,meteohub,2013-05-06 02:12:00,
2013-05-05 21:17:00,61.2,51.6,29.96,SSE,167,0.0,5.0,71,0.00,,,0.06,meteohub,2013-05-06 02:17:00,
2013-05-05 21:22:00,61.2,51.6,29.96,SE,144,0.0,2.0,71,0.00,,,0.06,meteohub,2013-05-06 02:22:00,
2013-05-05 21:27:00,61.0,51.1,29.96,East,94,0.0,3.0,70,0.00,,,0.06,meteohub,2013-05-06 02:27:00,
2013-05-05 21:32:00,60.4,51.8,29.96,ESE,112,0.0,4.0,73,0.00,,,0.06,meteohub,2013-05-06 02:32:00,
2013-05-05 21:37:00,60.6,51.6,29.97,ESE,121,0.0,4.0,72,0.00,,,0.06,meteohub,2013-05-06 02:37:00,
2013-05-05 21:42:00,60.4,51.1,29.97,SE,128,0.0,4.0,71,0.00,,,0.06,meteohub,2013-05-06 02:42:00,
2013-05-05 21:47:00,60.1,51.1,29.96,ESE,109,0.0,2.0,72,0.00,,,0.06,meteohub,2013-05-06 02:47:00,
2013-05-05 21:52:00,59.4,50.7,29.96,East,92,0.0,1.0,73,0.00,,,0.06,meteohub,2013-05-06 02:52:00,
2013-05-05 21:57:00,59.2,50.9,29.96,SE,130,7.0,7.0,74,0.00,,,0.06,meteohub,2013-05-06 02:57:00,
2013-05-05 22:02:00,60.1,51.4,29.96,ENE,58,0.0,7.0,73,0.00,,,0.06,meteohub,2013-05-06 03:02:00,
2013-05-05 22:07:00,59.5,51.3,29.96,NE,51,0.0,7.0,74,0.00,,,0.06,meteohub,2013-05-06 03:07:00,
2013-05-05 22:12:00,58.8,50.9,29.96,NE,51,0.0,7.0,75,0.00,,,0.06,meteohub,2013-05-06 03:12:00,
2013-05-05 22:17:00,58.6,51.1,29.95,NE,38,0.0,1.0,76,0.00,,,0.06,meteohub,2013-05-06 03:17:00,
2013-05-05 22:22:00,58.3,51.1,29.95,North,5,0.0,0.0,77,0.00,,,0.06,meteohub,2013-05-06 03:22:00,
2013-05-05 22:27:00,57.9,51.1,29.95,North,5,0.0,0.0,78,0.00,,,0.06,meteohub,2013-05-06 03:27:00,
2013-05-05 22:32:00,57.7,50.9,29.95,North,11,1.0,1.0,78,0.00,,,0.06,meteohub,2013-05-06 03:32:00,
2013-05-05 22:37:00,57.7,50.9,29.95,NNE,17,2.0,2.0,78,0.00,,,0.06,meteohub,2013-05-06 03:37:00,
2013-05-05 22:42:00,57.7,51.3,29.96,NE,42,5.0,5.0,79,0.00,,,0.06,meteohub,2013-05-06 03:42:00,
2013-05-05 22:47:00,57.6,50.7,29.96,NE,53,0.0,6.0,78,0.00,,,0.06,meteohub,2013-05-06 03:47:00,
2013-05-05 22:52:00,57.6,50.7,29.96,NNE,17,1.0,6.0,78,0.00,,,0.06,meteohub,2013-05-06 03:52:00,
2013-05-05 22:57:00,57.4,50.5,29.96,NNE,32,4.0,6.0,78,0.00,,,0.06,meteohub,2013-05-06 03:57:00,
2013-05-05 23:01:00,57.4,50.5,29.96,NE,34,1.0,6.0,78,0.00,,,0.06,meteohub,2013-05-06 04:01:00,
2013-05-05 23:02:00,57.4,50.5,29.96,NNE,30,0.0,6.0,78,0.00,,,0.06,meteohub,2013-05-06 04:02:00,
2013-05-05 23:03:00,57.4,50.5,29.96,NE,45,0.0,6.0,78,0.00,,,0.06,meteohub,2013-05-06 04:03:00,
2013-05-05 23:05:00,57.4,50.5,29.96,NE,49,2.0,5.0,78,0.00,,,0.06,meteohub,2013-05-06 04:05:00,
2013-05-05 23:10:00,57.4,50.5,29.96,NE,44,0.0,5.0,78,0.00,,,0.06,meteohub,2013-05-06 04:10:00,
2013-05-05 23:15:00,57.4,50.5,29.95,NE,44,1.0,4.0,78,0.00,,,0.06,meteohub,2013-05-06 04:15:00,
2013-05-05 23:21:00,57.4,50.2,29.95,NE,34,1.0,5.0,77,0.00,,,0.06,meteohub,2013-05-06 04:21:00,
2013-05-05 23:26:00,57.4,50.5,29.95,North,9,0.0,5.0,78,0.00,,,0.06,meteohub,2013-05-06 04:26:00,
2013-05-05 23:31:00,57.2,50.4,29.95,North,11,1.0,5.0,78,0.00,,,0.06,meteohub,2013-05-06 04:31:00,
2013-05-05 23:36:00,57.0,50.2,29.95,NNE,25,0.0,6.0,78,0.00,,,0.06,meteohub,2013-05-06 04:36:00,
2013-05-05 23:41:00,57.0,50.2,29.96,East,80,0.0,6.0,78,0.00,,,0.06,meteohub,2013-05-06 04:41:00,
2013-05-05 23:46:00,57.0,50.2,29.95,NNE,28,0.0,6.0,78,0.00,,,0.06,meteohub,2013-05-06 04:46:00,
2013-05-05 23:51:00,57.0,49.8,29.96,NNE,26,5.0,5.0,77,0.00,,,0.06,meteohub,2013-05-06 04:51:00,
2013-05-05 23:56:00,57.0,49.8,29.96,North,5,1.0,6.0,77,0.00,,,0.06,meteohub,2013-05-06 04:56:00,